Weather at Pierre Van Ryneveld Airport

Public forecast

Using degrees Celsius for public forecast. Weather courtesy of forecast.io.

Current aviation weather report (METAR) for Pierre Van Ryneveld Airport

Retrieved 2021/05/17 21:00 UTC (39 minutes ago):

FAUP 172100Z AUTO 01002KT //// // ////// 10/M00 Q1022

Aviation forecast (TAF) for Pierre Van Ryneveld Airport

Retrieved 2021/05/17 18:00 UTC (4 hours ago):

TAF FAUP 171600Z 1718/1818 VRB03KT CAVOK TX28/1813Z TN08/1805Z BECMG 1807/1809 01010KT